Time;durP1;ratioP1;P1;durP2;ratioP2;P2;SDS_P1;SDS_P2;PMS_P1;PMS_P2;Temp;Humidity;BMP_temperature;BMP_pressure;BME280_temperature;BME280_humidity;BME280_pressure;Samples;Min_cycle;Max_cycle;Signal;HPM_P1;HPM_P2
2023/09/02 00:01:02;;;;;;;9.73;3.58;;;;;;;;;;6182599;23;20016;-42
2023/09/02 00:03:31;;;;;;;7.83;3.20;;;;;;;;;;6173179;23;20035;-42
2023/09/02 00:05:59;;;;;;;7.28;3.03;;;;;;;;;;6185492;23;20013;-43
2023/09/02 00:08:26;;;;;;;7.45;3.08;;;;;;;;;;6188064;23;20095;-45
2023/09/02 00:10:54;;;;;;;7.22;3.22;;;;;;;;;;6183358;23;20099;-45
2023/09/02 00:13:23;;;;;;;7.13;3.10;;;;;;;;;;6177140;23;20044;-42
2023/09/02 00:15:51;;;;;;;7.77;3.10;;;;;;;;;;6187047;23;20016;-42
2023/09/02 00:18:19;;;;;;;7.78;3.20;;;;;;;;;;6184238;23;20500;-42
2023/09/02 00:20:47;;;;;;;6.72;3.10;;;;;;;;;;6176595;23;20372;-43
2023/09/02 00:23:14;;;;;;;8.43;3.60;;;;;;;;;;6181845;23;20016;-42
2023/09/02 00:25:43;;;;;;;7.22;3.08;;;;;;;;;;6177160;23;20017;-42
2023/09/02 00:28:11;;;;;;;10.40;3.23;;;;;;;;;;6193422;23;20478;-42
2023/09/02 00:30:40;;;;;;;7.93;3.78;;;;;;;;;;6174846;23;20260;-44
2023/09/02 00:33:08;;;;;;;7.95;2.97;;;;;;;;;;6189823;23;20013;-42
2023/09/02 00:35:36;;;;;;;8.13;3.05;;;;;;;;;;6179347;23;20017;-42
2023/09/02 00:38:03;;;;;;;8.98;2.85;;;;;;;;;;6189168;23;20495;-43
2023/09/02 00:40:32;;;;;;;7.50;2.90;;;;;;;;;;6175959;23;20023;-47
2023/09/02 00:43:02;;;;;;;7.35;3.13;;;;;;;;;;6187940;23;20771;-42
2023/09/02 00:45:30;;;;;;;6.75;2.50;;;;;;;;;;6185167;23;20017;-43
2023/09/02 00:48:01;;;;;;;7.20;2.95;;;;;;;;;;6184245;23;20016;-42
2023/09/02 00:50:28;;;;;;;8.23;3.40;;;;;;;;;;6186858;23;20044;-43
2023/09/02 00:52:56;;;;;;;8.00;2.57;;;;;;;;;;6189617;23;20012;-42
2023/09/02 00:55:24;;;;;;;9.38;3.53;;;;;;;;;;6178657;23;20020;-42
2023/09/02 00:57:52;;;;;;;7.72;2.83;;;;;;;;;;6186797;23;20056;-43
2023/09/02 01:00:20;;;;;;;8.82;3.08;;;;;;;;;;6168121;23;20016;-42
2023/09/02 01:02:50;;;;;;;6.70;2.97;;;;;;;;;;6160259;23;20016;-43
2023/09/02 01:05:21;;;;;;;8.30;3.27;;;;;;;;;;6186567;23;20063;-43
2023/09/02 01:07:51;;;;;;;9.07;3.40;;;;;;;;;;6190702;23;20016;-43
2023/09/02 01:10:21;;;;;;;7.70;3.13;;;;;;;;;;6186208;23;20071;-42
2023/09/02 01:12:49;;;;;;;8.57;2.97;;;;;;;;;;6186524;23;20444;-44
2023/09/02 01:15:17;;;;;;;7.30;2.47;;;;;;;;;;6184006;23;20536;-42
2023/09/02 01:17:45;;;;;;;7.93;2.70;;;;;;;;;;6183932;23;20044;-42
2023/09/02 01:20:14;;;;;;;6.95;3.10;;;;;;;;;;6174696;23;20017;-43
2023/09/02 01:23:00;;;;;;;8.90;3.17;;;;;;;;;;6185073;23;20026;-43
2023/09/02 01:25:45;;;;;;;7.68;2.90;;;;;;;;;;6189549;23;20837;-43
2023/09/02 01:28:16;;;;;;;7.35;2.63;;;;;;;;;;6183572;23;20050;-44
2023/09/02 01:30:46;;;;;;;7.73;3.30;;;;;;;;;;6181427;23;20020;-42
2023/09/02 01:33:14;;;;;;;8.35;3.47;;;;;;;;;;6187339;23;20047;-42
2023/09/02 01:35:43;;;;;;;7.32;2.78;;;;;;;;;;6183200;23;20507;-42
2023/09/02 01:38:15;;;;;;;7.88;2.95;;;;;;;;;;6192686;23;20054;-43
2023/09/02 01:40:44;;;;;;;8.05;3.20;;;;;;;;;;6191256;23;20022;-42
2023/09/02 01:43:20;;;;;;;8.47;3.37;;;;;;;;;;6179493;23;20016;-42
2023/09/02 01:45:50;;;;;;;9.40;3.00;;;;;;;;;;6173368;23;20039;-41
2023/09/02 01:48:19;;;;;;;7.18;2.70;;;;;;;;;;6199542;23;20021;-42
2023/09/02 01:50:47;;;;;;;7.05;2.90;;;;;;;;;;6183737;23;20017;-44
2023/09/02 01:53:15;;;;;;;7.47;2.90;;;;;;;;;;6192041;23;20013;-42
2023/09/02 01:55:43;;;;;;;8.17;3.20;;;;;;;;;;6189854;23;20012;-42
2023/09/02 01:58:12;;;;;;;7.20;2.72;;;;;;;;;;6193595;23;20024;-47
2023/09/02 02:00:41;;;;;;;8.52;3.13;;;;;;;;;;6170934;23;20024;-45
2023/09/02 02:03:14;;;;;;;9.77;2.88;;;;;;;;;;6191031;23;20028;-44
2023/09/02 02:05:46;;;;;;;8.98;3.30;;;;;;;;;;6189040;23;20379;-44
2023/09/02 02:08:18;;;;;;;8.63;3.30;;;;;;;;;;6194060;23;20012;-44
2023/09/02 02:10:49;;;;;;;7.20;3.03;;;;;;;;;;6191348;23;20008;-42
2023/09/02 02:13:17;;;;;;;7.80;2.83;;;;;;;;;;6186913;23;20423;-42
2023/09/02 02:15:47;;;;;;;7.20;3.08;;;;;;;;;;6188861;23;20020;-43
2023/09/02 02:18:14;;;;;;;8.07;3.10;;;;;;;;;;6191474;23;20461;-43
2023/09/02 02:20:50;;;;;;;7.73;3.40;;;;;;;;;;6180088;23;20017;-43
2023/09/02 02:23:18;;;;;;;7.28;2.80;;;;;;;;;;6195011;23;20017;-42
2023/09/02 02:25:46;;;;;;;8.60;3.30;;;;;;;;;;6193140;23;20012;-42
2023/09/02 02:28:14;;;;;;;6.97;2.90;;;;;;;;;;6184507;23;20023;-42
2023/09/02 02:30:46;;;;;;;7.97;3.10;;;;;;;;;;6197166;23;20012;-43
2023/09/02 02:33:16;;;;;;;7.00;2.83;;;;;;;;;;6196106;23;20016;-42
2023/09/02 02:35:44;;;;;;;7.45;3.20;;;;;;;;;;6186107;23;20020;-42
2023/09/02 02:38:12;;;;;;;7.93;3.58;;;;;;;;;;6192510;23;20024;-43
2023/09/02 02:40:40;;;;;;;7.13;3.00;;;;;;;;;;6191693;23;20047;-41
2023/09/02 02:43:08;;;;;;;7.00;3.28;;;;;;;;;;6180328;23;20016;-42
2023/09/02 02:45:36;;;;;;;7.03;2.40;;;;;;;;;;6193688;23;20112;-42
2023/09/02 02:48:04;;;;;;;9.15;3.70;;;;;;;;;;6183806;23;20044;-42
2023/09/02 02:50:35;;;;;;;6.45;2.72;;;;;;;;;;6189477;23;20023;-43
2023/09/02 02:53:05;;;;;;;7.53;2.97;;;;;;;;;;6193567;23;20016;-43
2023/09/02 02:55:34;;;;;;;10.32;3.47;;;;;;;;;;6196260;23;20395;-42
2023/09/02 02:58:01;;;;;;;6.10;2.60;;;;;;;;;;6186517;23;20032;-43
2023/09/02 03:00:30;;;;;;;8.10;3.03;;;;;;;;;;6190419;23;20016;-44
2023/09/02 03:02:58;;;;;;;7.60;3.13;;;;;;;;;;6187505;23;20491;-43
2023/09/02 03:05:26;;;;;;;7.82;3.00;;;;;;;;;;6189857;23;20016;-44
2023/09/02 03:07:55;;;;;;;7.28;2.72;;;;;;;;;;6189760;23;20468;-44
2023/09/02 03:10:24;;;;;;;7.57;3.03;;;;;;;;;;6194676;23;20082;-42
2023/09/02 03:12:52;;;;;;;7.32;2.85;;;;;;;;;;6186486;23;20017;-44
2023/09/02 03:15:20;;;;;;;8.23;2.92;;;;;;;;;;6196150;23;20443;-42
2023/09/02 03:17:48;;;;;;;6.32;2.60;;;;;;;;;;6185124;23;20070;-43
2023/09/02 03:20:15;;;;;;;7.43;2.97;;;;;;;;;;6192398;23;20078;-42
2023/09/02 03:22:43;;;;;;;7.67;2.83;;;;;;;;;;6182330;23;20020;-42
2023/09/02 03:25:13;;;;;;;8.65;2.83;;;;;;;;;;6191031;23;20612;-42
2023/09/02 03:27:41;;;;;;;9.75;3.10;;;;;;;;;;6178155;23;20016;-43
2023/09/02 03:30:08;;;;;;;9.10;3.78;;;;;;;;;;6168720;23;20024;-45
2023/09/02 03:32:37;;;;;;;7.43;3.20;;;;;;;;;;6172989;23;20047;-43
2023/09/02 03:35:07;;;;;;;10.40;3.80;;;;;;;;;;6191134;23;20066;-44
2023/09/02 03:37:35;;;;;;;8.93;3.40;;;;;;;;;;6186762;23;20356;-42
2023/09/02 03:40:04;;;;;;;12.05;4.65;;;;;;;;;;6186925;23;20059;-42
2023/09/02 03:42:33;;;;;;;9.35;5.25;;;;;;;;;;6192088;23;20028;-45
2023/09/02 03:45:00;;;;;;;10.13;5.03;;;;;;;;;;6166067;23;20514;-43
2023/09/02 03:47:32;;;;;;;11.33;5.07;;;;;;;;;;6190210;23;20025;-43
2023/09/02 03:50:00;;;;;;;15.88;6.20;;;;;;;;;;6190261;23;20016;-43
2023/09/02 03:52:27;;;;;;;13.52;5.90;;;;;;;;;;6192499;23;20348;-42
2023/09/02 03:54:56;;;;;;;12.48;5.75;;;;;;;;;;6197998;23;20013;-42
2023/09/02 03:57:24;;;;;;;14.27;6.28;;;;;;;;;;6183234;23;20776;-42
2023/09/02 03:59:53;;;;;;;17.43;7.27;;;;;;;;;;6184685;23;20027;-42
2023/09/02 04:02:23;;;;;;;27.63;8.45;;;;;;;;;;6197468;23;20384;-43
2023/09/02 04:04:51;;;;;;;32.17;8.82;;;;;;;;;;6190841;23;20020;-41
2023/09/02 04:07:19;;;;;;;30.73;10.85;;;;;;;;;;6190041;23;20013;-42
2023/09/02 04:09:48;;;;;;;42.13;11.55;;;;;;;;;;6188736;23;20016;-42
2023/09/02 04:12:15;;;;;;;48.70;12.57;;;;;;;;;;6194275;23;20036;-42
2023/09/02 04:14:43;;;;;;;49.95;11.43;;;;;;;;;;6176721;23;20212;-42
2023/09/02 04:17:13;;;;;;;59.03;13.48;;;;;;;;;;6196446;23;20106;-43
2023/09/02 04:19:41;;;;;;;58.97;13.45;;;;;;;;;;6176035;23;20024;-42
2023/09/02 04:22:08;;;;;;;58.10;14.70;;;;;;;;;;6189319;23;20506;-42
2023/09/02 04:24:37;;;;;;;57.53;14.57;;;;;;;;;;6187527;23;20546;-42
2023/09/02 04:27:05;;;;;;;60.38;15.48;;;;;;;;;;6196220;23;20017;-42
2023/09/02 04:29:33;;;;;;;63.00;16.67;;;;;;;;;;6185972;23;20020;-42
2023/09/02 04:32:03;;;;;;;63.40;16.50;;;;;;;;;;6191449;23;20177;-43
2023/09/02 04:34:32;;;;;;;55.35;16.27;;;;;;;;;;6188879;23;20016;-42
2023/09/02 04:37:00;;;;;;;53.37;16.33;;;;;;;;;;6189528;23;20020;-42
2023/09/02 04:39:28;;;;;;;56.65;17.08;;;;;;;;;;6193962;23;20023;-43
2023/09/02 04:41:56;;;;;;;62.25;18.02;;;;;;;;;;6187857;23;20096;-44
2023/09/02 04:44:24;;;;;;;60.33;19.10;;;;;;;;;;6193996;23;20020;-42
2023/09/02 04:46:52;;;;;;;53.03;17.13;;;;;;;;;;6175465;23;20353;-42
2023/09/02 04:49:20;;;;;;;62.70;17.67;;;;;;;;;;6184856;23;20161;-42
2023/09/02 04:51:50;;;;;;;64.22;18.35;;;;;;;;;;6176631;23;20023;-43
2023/09/02 04:54:17;;;;;;;65.13;18.40;;;;;;;;;;6188030;23;20014;-41
2023/09/02 04:56:45;;;;;;;68.35;20.88;;;;;;;;;;6174222;23;20400;-41
2023/09/02 04:59:13;;;;;;;69.90;18.13;;;;;;;;;;6183723;23;20013;-42
2023/09/02 05:01:41;;;;;;;68.17;18.87;;;;;;;;;;6178681;23;20013;-41
2023/09/02 05:04:08;;;;;;;74.90;19.63;;;;;;;;;;6193549;23;20025;-41
2023/09/02 05:06:36;;;;;;;67.32;18.73;;;;;;;;;;6179311;23;20390;-42
2023/09/02 05:09:06;;;;;;;72.72;20.08;;;;;;;;;;6191458;23;20016;-41
2023/09/02 05:11:34;;;;;;;69.78;19.58;;;;;;;;;;6183254;23;20031;-41
2023/09/02 05:14:01;;;;;;;75.73;20.33;;;;;;;;;;6191483;23;20075;-42
2023/09/02 05:16:29;;;;;;;74.95;21.17;;;;;;;;;;6174993;23;20028;-42
2023/09/02 05:18:57;;;;;;;69.82;20.52;;;;;;;;;;6185993;23;20453;-42
2023/09/02 05:21:24;;;;;;;76.40;21.13;;;;;;;;;;6174690;23;20021;-41
2023/09/02 05:23:53;;;;;;;73.50;21.25;;;;;;;;;;6189958;23;20432;-42
2023/09/02 05:26:22;;;;;;;70.60;18.63;;;;;;;;;;6181110;23;20012;-42
2023/09/02 05:28:50;;;;;;;78.43;19.83;;;;;;;;;;6187482;23;20672;-43
2023/09/02 05:31:18;;;;;;;66.80;20.55;;;;;;;;;;6191153;23;20013;-43
2023/09/02 05:33:46;;;;;;;58.63;18.52;;;;;;;;;;6175953;23;20437;-42
2023/09/02 05:36:14;;;;;;;62.05;17.48;;;;;;;;;;6191036;23;20067;-43
2023/09/02 05:38:42;;;;;;;66.63;18.57;;;;;;;;;;6181630;23;20017;-44
2023/09/02 05:41:10;;;;;;;60.78;18.02;;;;;;;;;;6188536;23;20176;-42
2023/09/02 05:43:39;;;;;;;63.83;17.77;;;;;;;;;;6184550;23;20024;-44
2023/09/02 05:46:08;;;;;;;60.80;17.98;;;;;;;;;;6189944;23;20016;-42
2023/09/02 05:48:37;;;;;;;57.75;17.85;;;;;;;;;;6183199;23;20426;-41
2023/09/02 05:51:05;;;;;;;66.80;18.73;;;;;;;;;;6183675;23;20020;-43
2023/09/02 05:53:33;;;;;;;72.65;17.75;;;;;;;;;;6184321;23;20442;-42
2023/09/02 05:56:01;;;;;;;69.35;18.67;;;;;;;;;;6190409;23;20020;-43
2023/09/02 05:58:29;;;;;;;66.60;19.33;;;;;;;;;;6178828;23;20012;-42
2023/09/02 06:01:03;;;;;;;75.80;20.23;;;;;;;;;;6192975;23;20026;-41
2023/09/02 06:03:31;;;;;;;74.97;18.93;;;;;;;;;;6180059;23;20017;-41
2023/09/02 06:05:59;;;;;;;79.82;20.13;;;;;;;;;;6184355;23;20017;-43
2023/09/02 06:08:26;;;;;;;100.18;21.65;;;;;;;;;;6175175;23;20386;-42
2023/09/02 06:10:58;;;;;;;92.18;21.75;;;;;;;;;;6186965;23;20444;-41
2023/09/02 06:13:26;;;;;;;95.65;22.80;;;;;;;;;;6182215;23;20045;-41
2023/09/02 06:16:00;;;;;;;87.53;20.87;;;;;;;;;;6185454;23;20017;-43
2023/09/02 06:18:29;;;;;;;87.60;21.45;;;;;;;;;;6191106;23;20024;-41
2023/09/02 06:20:57;;;;;;;102.50;23.50;;;;;;;;;;6182451;23;20024;-41
2023/09/02 06:23:25;;;;;;;102.85;22.73;;;;;;;;;;6193073;23;20519;-41
2023/09/02 06:25:56;;;;;;;97.13;21.65;;;;;;;;;;6182163;23;20020;-43
2023/09/02 06:28:24;;;;;;;98.57;22.80;;;;;;;;;;6179156;23;20013;-41
2023/09/02 06:30:51;;;;;;;106.93;23.58;;;;;;;;;;6179719;23;20051;-45
2023/09/02 06:33:22;;;;;;;109.70;23.58;;;;;;;;;;6186502;23;20019;-43
2023/09/02 06:35:50;;;;;;;101.13;22.13;;;;;;;;;;6177511;23;20455;-41
2023/09/02 06:38:18;;;;;;;91.72;19.85;;;;;;;;;;6189865;23;20026;-42
2023/09/02 06:40:46;;;;;;;91.83;20.60;;;;;;;;;;6181435;23;20017;-43
2023/09/02 06:43:13;;;;;;;90.78;18.67;;;;;;;;;;6185905;23;20459;-41
2023/09/02 06:45:41;;;;;;;82.45;19.30;;;;;;;;;;6173041;23;20071;-41
2023/09/02 06:48:09;;;;;;;82.68;18.45;;;;;;;;;;6184070;23;20059;-41
2023/09/02 06:50:38;;;;;;;86.00;20.58;;;;;;;;;;6144449;23;20577;-41
2023/09/02 06:53:06;;;;;;;80.13;18.27;;;;;;;;;;6180861;23;20016;-41
2023/09/02 06:55:34;;;;;;;80.68;16.42;;;;;;;;;;6184522;23;20024;-41
2023/09/02 06:58:01;;;;;;;70.82;17.38;;;;;;;;;;6176782;23;20036;-41
2023/09/02 07:00:29;;;;;;;69.82;16.83;;;;;;;;;;6181728;23;20020;-42
2023/09/02 07:02:57;;;;;;;71.07;17.83;;;;;;;;;;6185380;23;20025;-41
2023/09/02 07:05:25;;;;;;;71.13;16.60;;;;;;;;;;6177303;23;20522;-44
2023/09/02 07:07:54;;;;;;;69.85;18.40;;;;;;;;;;6189023;23;20012;-41
2023/09/02 07:10:22;;;;;;;62.00;16.65;;;;;;;;;;6180955;23;20083;-43
2023/09/02 07:12:53;;;;;;;56.95;16.83;;;;;;;;;;6183155;23;20024;-43
2023/09/02 07:15:20;;;;;;;63.08;15.80;;;;;;;;;;6192347;23;20028;-42
2023/09/02 07:17:49;;;;;;;60.60;17.50;;;;;;;;;;6176654;23;20016;-41
2023/09/02 07:20:16;;;;;;;62.28;16.92;;;;;;;;;;6180346;23;20456;-41
2023/09/02 07:22:44;;;;;;;62.97;16.30;;;;;;;;;;6186259;23;20021;-42
2023/09/02 07:25:14;;;;;;;53.88;14.80;;;;;;;;;;6184740;23;20265;-42
2023/09/02 07:27:43;;;;;;;54.35;15.48;;;;;;;;;;6187345;23;20050;-41
2023/09/02 07:30:11;;;;;;;50.13;15.67;;;;;;;;;;6180550;23;20024;-42
2023/09/02 07:32:40;;;;;;;54.05;14.60;;;;;;;;;;6182495;23;20059;-45
2023/09/02 07:35:08;;;;;;;60.50;15.75;;;;;;;;;;6183902;23;20020;-41
2023/09/02 07:37:35;;;;;;;58.40;16.75;;;;;;;;;;6184376;23;20048;-43
2023/09/02 07:40:04;;;;;;;54.30;15.30;;;;;;;;;;6186863;23;20024;-44
2023/09/02 07:42:34;;;;;;;64.93;16.40;;;;;;;;;;6182502;23;20050;-41
2023/09/02 07:45:01;;;;;;;59.83;15.82;;;;;;;;;;6181365;23;20013;-42
2023/09/02 07:47:29;;;;;;;59.85;15.68;;;;;;;;;;6138492;23;20024;-43
2023/09/02 07:49:57;;;;;;;61.28;16.23;;;;;;;;;;6187184;23;20013;-42
2023/09/02 07:52:25;;;;;;;55.70;14.60;;;;;;;;;;6177874;23;20013;-42
2023/09/02 07:54:52;;;;;;;56.77;16.63;;;;;;;;;;6191255;23;20098;-42
2023/09/02 07:57:20;;;;;;;61.17;15.80;;;;;;;;;;6176848;23;20399;-46
2023/09/02 07:59:50;;;;;;;53.78;16.02;;;;;;;;;;6186815;23;20475;-42
2023/09/02 08:02:18;;;;;;;54.47;16.25;;;;;;;;;;6188820;23;20482;-43
2023/09/02 08:04:46;;;;;;;57.13;16.48;;;;;;;;;;6178484;23;20023;-44
2023/09/02 08:07:14;;;;;;;57.80;16.47;;;;;;;;;;6177838;23;21020;-42
2023/09/02 08:09:41;;;;;;;53.03;16.05;;;;;;;;;;6183626;23;20085;-41
2023/09/02 08:12:11;;;;;;;55.03;16.42;;;;;;;;;;6187176;23;20012;-42
2023/09/02 08:14:39;;;;;;;49.47;14.85;;;;;;;;;;6182287;23;20043;-43
2023/09/02 08:17:09;;;;;;;49.42;15.27;;;;;;;;;;6175316;23;20079;-42
2023/09/02 08:19:37;;;;;;;48.87;16.07;;;;;;;;;;6185065;23;20017;-42
2023/09/02 08:22:07;;;;;;;43.35;14.43;;;;;;;;;;6184820;23;20090;-42
2023/09/02 08:24:35;;;;;;;46.40;14.05;;;;;;;;;;6183113;23;20016;-43
2023/09/02 08:27:02;;;;;;;43.47;13.85;;;;;;;;;;6188111;23;20128;-42
2023/09/02 08:29:30;;;;;;;40.10;13.30;;;;;;;;;;6187494;23;20017;-43
2023/09/02 08:31:58;;;;;;;39.90;13.23;;;;;;;;;;6188146;23;20392;-42
2023/09/02 08:34:27;;;;;;;44.53;13.43;;;;;;;;;;6170762;23;20020;-42
2023/09/02 08:36:54;;;;;;;39.30;12.52;;;;;;;;;;6164597;23;20043;-42
2023/09/02 08:39:22;;;;;;;40.38;13.70;;;;;;;;;;6175318;23;20659;-43
2023/09/02 08:41:50;;;;;;;40.97;14.00;;;;;;;;;;6182213;23;20013;-44
2023/09/02 08:44:18;;;;;;;37.80;13.23;;;;;;;;;;6173424;23;20339;-42
2023/09/02 08:46:47;;;;;;;35.67;11.88;;;;;;;;;;6180620;23;20028;-43
2023/09/02 08:49:15;;;;;;;36.83;12.93;;;;;;;;;;6172401;23;20024;-45
2023/09/02 08:51:45;;;;;;;34.83;12.18;;;;;;;;;;6168305;23;20025;-42
2023/09/02 08:54:14;;;;;;;31.65;11.20;;;;;;;;;;6187890;23;20110;-42
2023/09/02 08:56:43;;;;;;;29.37;11.00;;;;;;;;;;6168613;23;20021;-43
2023/09/02 08:59:11;;;;;;;28.25;11.45;;;;;;;;;;6187403;23;20070;-42
2023/09/02 09:01:43;;;;;;;25.65;10.02;;;;;;;;;;6152186;23;20025;-42
2023/09/02 09:04:13;;;;;;;20.55;7.90;;;;;;;;;;6175802;23;20020;-45
2023/09/02 09:06:42;;;;;;;26.73;10.45;;;;;;;;;;6173226;23;20199;-42
2023/09/02 09:09:11;;;;;;;23.97;10.20;;;;;;;;;;6188113;23;20637;-42
2023/09/02 09:11:40;;;;;;;18.88;7.40;;;;;;;;;;6179723;23;20016;-42
2023/09/02 09:14:10;;;;;;;22.23;9.05;;;;;;;;;;6188984;23;20079;-43
2023/09/02 09:16:40;;;;;;;19.42;7.90;;;;;;;;;;6180048;23;20716;-43
2023/09/02 09:19:07;;;;;;;16.88;7.70;;;;;;;;;;6193023;23;20027;-42
2023/09/02 09:21:39;;;;;;;15.70;7.20;;;;;;;;;;6169143;23;20025;-43
2023/09/02 09:24:11;;;;;;;15.52;6.47;;;;;;;;;;6190897;23;20513;-44
2023/09/02 09:26:42;;;;;;;15.35;6.22;;;;;;;;;;6177933;23;20470;-44
2023/09/02 09:29:11;;;;;;;14.07;6.22;;;;;;;;;;6181733;23;20414;-43
2023/09/02 09:31:40;;;;;;;12.77;6.00;;;;;;;;;;6182090;23;20020;-42
2023/09/02 09:34:08;;;;;;;13.37;5.70;;;;;;;;;;6181587;23;20020;-45
2023/09/02 09:36:35;;;;;;;10.35;3.45;;;;;;;;;;6184257;23;20024;-43
2023/09/02 09:39:04;;;;;;;12.35;5.60;;;;;;;;;;6181722;23;20108;-44
2023/09/02 09:41:32;;;;;;;13.75;5.82;;;;;;;;;;6190401;23;20020;-43
2023/09/02 09:44:08;;;;;;;13.93;5.70;;;;;;;;;;6183122;23;20717;-44
2023/09/02 09:46:48;;;;;;;16.10;7.03;;;;;;;;;;6179954;23;20043;-42
2023/09/02 09:49:21;;;;;;;15.32;7.20;;;;;;;;;;6194556;23;20012;-42
2023/09/02 09:51:52;;;;;;;17.42;7.43;;;;;;;;;;6181095;23;20030;-42
2023/09/02 09:54:19;;;;;;;15.20;7.82;;;;;;;;;;6193731;23;20017;-42
2023/09/02 09:56:48;;;;;;;17.13;8.25;;;;;;;;;;6187559;23;20017;-42
2023/09/02 09:59:17;;;;;;;14.90;7.50;;;;;;;;;;6192774;23;20016;-46
2023/09/02 10:01:47;;;;;;;17.63;8.90;;;;;;;;;;6186581;23;20017;-44
2023/09/02 10:04:15;;;;;;;14.95;7.75;;;;;;;;;;6181268;23;20021;-43
2023/09/02 10:06:45;;;;;;;16.63;8.40;;;;;;;;;;6189256;23;20020;-43
2023/09/02 10:09:13;;;;;;;19.25;8.80;;;;;;;;;;6179933;23;20016;-42
2023/09/02 10:11:42;;;;;;;17.43;7.90;;;;;;;;;;6170658;23;20093;-44
2023/09/02 10:14:11;;;;;;;16.77;7.40;;;;;;;;;;6191772;23;20510;-43
2023/09/02 10:16:43;;;;;;;19.63;8.32;;;;;;;;;;6183499;23;20020;-42
2023/09/02 10:19:12;;;;;;;15.32;6.75;;;;;;;;;;6191267;23;20032;-42
2023/09/02 10:21:42;;;;;;;17.33;8.45;;;;;;;;;;6185851;23;20074;-42
2023/09/02 10:24:10;;;;;;;18.60;8.30;;;;;;;;;;6187101;23;20044;-43
2023/09/02 10:26:44;;;;;;;17.08;7.88;;;;;;;;;;6192957;23;20394;-43
2023/09/02 10:29:14;;;;;;;14.65;7.18;;;;;;;;;;6180599;23;20017;-43
2023/09/02 10:31:48;;;;;;;14.90;6.68;;;;;;;;;;6185549;23;20027;-44
2023/09/02 10:34:19;;;;;;;12.65;6.10;;;;;;;;;;6185896;23;20104;-42
2023/09/02 10:36:49;;;;;;;11.70;5.53;;;;;;;;;;6189420;23;20044;-42
2023/09/02 10:39:20;;;;;;;11.25;4.55;;;;;;;;;;6188490;23;20023;-43
2023/09/02 10:41:49;;;;;;;8.15;3.63;;;;;;;;;;6184586;23;20012;-44
2023/09/02 10:44:18;;;;;;;10.40;4.47;;;;;;;;;;6187650;23;20020;-45
2023/09/02 10:46:48;;;;;;;12.45;4.97;;;;;;;;;;6180894;23;20024;-43
2023/09/02 10:49:17;;;;;;;9.17;3.70;;;;;;;;;;6191388;23;20090;-42
2023/09/02 10:51:45;;;;;;;8.93;4.20;;;;;;;;;;6183057;23;20297;-45
2023/09/02 10:54:13;;;;;;;9.15;4.68;;;;;;;;;;6191367;23;20043;-46
2023/09/02 10:56:41;;;;;;;8.52;4.38;;;;;;;;;;6183550;23;20495;-43
2023/09/02 10:59:08;;;;;;;10.05;5.00;;;;;;;;;;6191020;23;20016;-42
2023/09/02 11:01:44;;;;;;;10.23;4.67;;;;;;;;;;6181132;23;20012;-44
2023/09/02 11:04:13;;;;;;;10.77;4.75;;;;;;;;;;6192058;23;20033;-49
2023/09/02 11:07:02;;;;;;;8.43;4.07;;;;;;;;;;6181656;23;20032;-42
2023/09/02 11:09:48;;;;;;;7.40;3.15;;;;;;;;;;6187084;23;20023;-43
2023/09/02 11:12:17;;;;;;;9.13;3.97;;;;;;;;;;6191727;23;20099;-41
2023/09/02 11:15:12;;;;;;;9.20;3.97;;;;;;;;;;6182830;23;20016;-43
2023/09/02 11:17:41;;;;;;;7.38;3.55;;;;;;;;;;6185199;23;20083;-43
2023/09/02 11:20:11;;;;;;;6.07;2.42;;;;;;;;;;6189923;23;20021;-42
2023/09/02 11:22:49;;;;;;;6.53;2.97;;;;;;;;;;6180439;23;20027;-42
2023/09/02 11:25:39;;;;;;;7.10;3.03;;;;;;;;;;6189815;23;20021;-42
2023/09/02 11:28:07;;;;;;;6.50;2.50;;;;;;;;;;6180532;23;20059;-46
2023/09/02 11:30:36;;;;;;;6.82;3.13;;;;;;;;;;6187370;23;20017;-43
2023/09/02 11:33:04;;;;;;;7.18;2.75;;;;;;;;;;6186640;23;20444;-42
2023/09/02 11:35:35;;;;;;;7.68;3.90;;;;;;;;;;6182922;23;20021;-46
2023/09/02 11:38:04;;;;;;;8.15;3.58;;;;;;;;;;6193429;23;20017;-42
2023/09/02 11:40:31;;;;;;;6.70;2.93;;;;;;;;;;6173259;23;20474;-41
2023/09/02 11:43:01;;;;;;;7.47;3.55;;;;;;;;;;6187383;23;20017;-42
2023/09/02 11:45:32;;;;;;;7.80;3.67;;;;;;;;;;6180386;23;20460;-41
2023/09/02 11:48:00;;;;;;;5.40;2.58;;;;;;;;;;6187233;23;20654;-42
2023/09/02 11:50:28;;;;;;;7.43;2.92;;;;;;;;;;6186910;23;20021;-41
2023/09/02 11:52:58;;;;;;;7.43;3.50;;;;;;;;;;6189126;23;20360;-42
2023/09/02 11:55:26;;;;;;;5.35;2.15;;;;;;;;;;6186945;23;20013;-43
2023/09/02 11:57:54;;;;;;;6.18;3.28;;;;;;;;;;6189412;23;20020;-43
2023/09/02 12:00:22;;;;;;;6.65;3.35;;;;;;;;;;6183220;23;20019;-42
2023/09/02 12:02:51;;;;;;;6.72;3.00;;;;;;;;;;6187332;23;20079;-42
2023/09/02 12:05:19;;;;;;;6.10;2.93;;;;;;;;;;6183579;23;20298;-43
2023/09/02 12:07:47;;;;;;;6.88;3.17;;;;;;;;;;6189803;23;20021;-42
2023/09/02 12:10:16;;;;;;;7.95;3.15;;;;;;;;;;6183266;23;20028;-43
2023/09/02 12:12:46;;;;;;;7.45;2.90;;;;;;;;;;6185559;23;20399;-43
2023/09/02 12:15:15;;;;;;;6.60;3.17;;;;;;;;;;6190380;23;20012;-43
2023/09/02 12:17:43;;;;;;;6.20;2.63;;;;;;;;;;6182298;23;20020;-42
2023/09/02 12:20:12;;;;;;;6.32;2.78;;;;;;;;;;6190580;23;20016;-43
2023/09/02 12:22:41;;;;;;;7.65;2.83;;;;;;;;;;6181263;23;20040;-43
2023/09/02 12:25:16;;;;;;;5.85;2.20;;;;;;;;;;6188671;23;20017;-43
2023/09/02 12:27:45;;;;;;;5.82;3.00;;;;;;;;;;6184692;23;20024;-44
2023/09/02 12:30:13;;;;;;;6.67;3.00;;;;;;;;;;6187844;23;20024;-48
2023/09/02 12:32:41;;;;;;;4.97;2.38;;;;;;;;;;6177424;23;20028;-44
2023/09/02 12:35:09;;;;;;;5.72;2.60;;;;;;;;;;6189496;23;20071;-42
2023/09/02 12:37:37;;;;;;;7.47;2.92;;;;;;;;;;6184845;23;20343;-44
2023/09/02 12:40:12;;;;;;;5.90;2.65;;;;;;;;;;6191197;23;20013;-43
2023/09/02 12:42:41;;;;;;;5.50;2.60;;;;;;;;;;6187197;23;20019;-45
2023/09/02 12:45:10;;;;;;;6.13;2.58;;;;;;;;;;6181707;23;20424;-43
2023/09/02 12:47:38;;;;;;;6.90;2.30;;;;;;;;;;6190599;23;20024;-43
2023/09/02 12:50:07;;;;;;;4.95;2.13;;;;;;;;;;6175325;23;20434;-43
2023/09/02 12:52:35;;;;;;;5.95;2.00;;;;;;;;;;6183963;23;20021;-43
2023/09/02 12:55:05;;;;;;;6.87;2.10;;;;;;;;;;6184617;23;20013;-44
2023/09/02 12:57:34;;;;;;;5.63;1.98;;;;;;;;;;6190801;23;20070;-43
2023/09/02 13:00:04;;;;;;;4.70;1.83;;;;;;;;;;6175642;23;20023;-44
2023/09/02 13:02:32;;;;;;;5.10;2.17;;;;;;;;;;6190310;23;20423;-42
2023/09/02 13:05:02;;;;;;;4.43;1.95;;;;;;;;;;6184841;23;20100;-46
2023/09/02 13:07:29;;;;;;;4.93;2.47;;;;;;;;;;6189795;23;20020;-49
2023/09/02 13:09:58;;;;;;;5.15;2.30;;;;;;;;;;6185483;23;20462;-45
2023/09/02 13:12:27;;;;;;;5.20;2.28;;;;;;;;;;6192137;23;20082;-45
2023/09/02 13:14:54;;;;;;;5.80;2.30;;;;;;;;;;6181300;23;20423;-43
2023/09/02 13:17:23;;;;;;;4.65;2.05;;;;;;;;;;6191645;23;20017;-45
2023/09/02 13:19:51;;;;;;;5.03;2.33;;;;;;;;;;6176866;23;20031;-45
2023/09/02 13:22:19;;;;;;;4.53;1.92;;;;;;;;;;6193337;23;20017;-44
2023/09/02 13:24:47;;;;;;;8.32;1.85;;;;;;;;;;6179500;23;20024;-43
2023/09/02 13:27:18;;;;;;;4.80;2.13;;;;;;;;;;6188759;23;20084;-43
2023/09/02 13:29:45;;;;;;;5.50;2.17;;;;;;;;;;6190291;23;20189;-43
2023/09/02 13:32:16;;;;;;;5.67;2.40;;;;;;;;;;6185850;23;20026;-43
2023/09/02 13:34:46;;;;;;;6.30;2.28;;;;;;;;;;6185905;23;20407;-42
2023/09/02 13:37:21;;;;;;;5.60;2.42;;;;;;;;;;6184864;23;20031;-43
2023/09/02 13:39:53;;;;;;;4.40;1.75;;;;;;;;;;6183593;23;20706;-42
2023/09/02 13:42:21;;;;;;;5.32;1.80;;;;;;;;;;6190489;23;20019;-42
2023/09/02 13:44:49;;;;;;;4.60;1.57;;;;;;;;;;6187467;23;20016;-45
2023/09/02 13:47:17;;;;;;;5.07;2.45;;;;;;;;;;6132298;23;20043;-41
2023/09/02 13:49:51;;;;;;;4.55;1.98;;;;;;;;;;6189499;23;20020;-44
2023/09/02 13:52:22;;;;;;;5.18;1.80;;;;;;;;;;6181387;23;20091;-44
2023/09/02 13:54:50;;;;;;;4.95;1.88;;;;;;;;;;6184863;23;20345;-45
2023/09/02 13:57:20;;;;;;;4.33;1.53;;;;;;;;;;6197651;23;20013;-43
2023/09/02 13:59:48;;;;;;;5.38;2.15;;;;;;;;;;6180963;23;20419;-44
2023/09/02 14:02:16;;;;;;;4.90;2.17;;;;;;;;;;6193215;23;20908;-46
2023/09/02 14:04:48;;;;;;;5.63;2.20;;;;;;;;;;6186611;23;20021;-43
2023/09/02 14:07:16;;;;;;;5.32;2.03;;;;;;;;;;6194597;23;20016;-44
2023/09/02 14:09:44;;;;;;;5.53;2.17;;;;;;;;;;6185980;23;20474;-45
2023/09/02 14:12:13;;;;;;;6.22;2.03;;;;;;;;;;6195890;23;20020;-43
2023/09/02 14:14:41;;;;;;;6.15;2.05;;;;;;;;;;6183011;23;20515;-43
2023/09/02 14:17:09;;;;;;;4.45;1.67;;;;;;;;;;6190556;23;20062;-44
2023/09/02 14:19:36;;;;;;;4.43;1.90;;;;;;;;;;6184181;23;20021;-43
2023/09/02 14:22:06;;;;;;;6.00;2.27;;;;;;;;;;6188785;23;20021;-42
2023/09/02 14:24:34;;;;;;;4.93;2.20;;;;;;;;;;6190952;23;20016;-42
2023/09/02 14:27:09;;;;;;;5.80;2.30;;;;;;;;;;6187013;23;20475;-44
2023/09/02 14:29:37;;;;;;;5.00;1.80;;;;;;;;;;6189111;23;20027;-43
2023/09/02 14:32:05;;;;;;;5.55;2.15;;;;;;;;;;6185013;23;20028;-42
2023/09/02 14:34:33;;;;;;;5.00;1.83;;;;;;;;;;6189408;23;20020;-45
2023/09/02 14:37:02;;;;;;;7.30;2.15;;;;;;;;;;6188227;23;20020;-43
2023/09/02 14:39:33;;;;;;;6.00;1.98;;;;;;;;;;6192185;23;20017;-44
2023/09/02 14:42:02;;;;;;;6.20;2.47;;;;;;;;;;6186222;23;20023;-42